Guyton, GA (31312)

8:30 AM EST on March 01, 2015 (GMT -0500)
Ashley Woods | Change Station
CLOSE
Current Station
Personal Weather Station
Location: Guyton, GA
Elevation: 121 ft
Nearby Weather Stations
Active Advisory: Flood Warning

Elev 121 ft 32.31 °N, 81.33 °W | Updated 4 seconds ago

Overcast
Overcast
40.1 °F
Feels Like 40 °F
N
0.0
Wind Variable Wind from NNE
Gusts 0.0 mph

Today
High -- | Low -- °F
--% Chance of Precip.
Yesterday
High -- | Low -- °F
Precip. -- in
6:53 AM 6:22 PM
Waxing Gibbous, 85% visible
Pressure 30.50 in
Visibility 3.0 miles
Clouds Overcast 500 ft
Windchill 40 °F
Dew Point 39 °F
Humidity 96%
Rainfall 0.04 in
Snow Depth Not available.
UV 0 out of 12
Pollen 3.10 out of 12
Air Quality Not available.
Flu Activity Not available.
METAR KSAV 011253Z 02006KT 3SM BR OVC005 05/04 A3049 RMK AO2 RAB20E46 SLP326 P0001 T00500039

More Conditions Fewer Conditions

Pressure 30.50 in
Visibility 3.0 miles
Clouds Overcast 500 ft
Windchill 40 °F
Dew Point 39 °F
Humidity 96%
Rainfall 0.04 in
Snow Depth Not available.
UV 0 out of 12
Pollen 3.10 out of 12
Air Quality Not available.
Flu Activity Not available.
METAR KSAV 011253Z 02006KT 3SM BR OVC005 05/04 A3049 RMK AO2 RAB20E46 SLP326 P0001 T00500039

More Conditions Fewer Conditions

10-Day Weather Forecast

Almanac

Astronomy

Mar. 01, 2015 Rise Set
Actual Time
Civil Twilight
Nautical Twilight
Astronomical Twilight
Moon
Length of Visible Light
Length of Day
Tomorrow will be .
, % of the Moon is Illuminated

Today's Extremes

State Highs State Lows

Community

WunderPhotos

Upload Photos

1,801,381 photos uploaded!

WunderBlogs® & News

Nearby

Air Quality

  Air Quality AQ Index Pollutant
Not available.

Snow Depth

Station Depth Elevation

Earthquake Activity

City Distance Mag. Time & Date
Minimum magnitude displayed is 2.5.

Coastal Water Temperatures

Place Temperature

Nearby Weather Stations

Flood Warning
Statement as of 11:10 PM EST on February 28, 2015

The Flood Warning continues for
the Ogeechee river near Eden.
* At 10 PM Saturday the stage was 10.8 feet.
* Flood stage is 11.0 feet.
* Minor flooding is forecast.
* Forecast, rise above flood stage by Sunday morning and continue to
rise to near 12.5 feet by early Thursday afternoon.
* At 12.0 feet, water encroaches on some homes along dashers Landing
Road and Yarbrough Landing Road. Davis Landing Road also becomes
impassable.


Lat... Lon 3246 8160 3252 8152 3227 8140 3208 8133
          3206 8143 3223 8150